sensor_id;sensor_type;location;lat;lon;timestamp;temperature;humidity
34558;DHT22;24708;48.888;8.736;2022-12-20T06:32:58;7.70;99.90
34558;DHT22;24708;48.888;8.736;2022-12-20T06:35:26;7.60;99.90
34558;DHT22;24708;48.888;8.736;2022-12-20T06:37:53;7.50;99.90
34558;DHT22;24708;48.888;8.736;2022-12-20T06:40:21;7.30;99.90
34558;DHT22;24708;48.888;8.736;2022-12-20T06:42:48;7.40;99.90
34558;DHT22;24708;48.888;8.736;2022-12-20T06:45:16;7.30;99.90
34558;DHT22;24708;48.888;8.736;2022-12-20T06:47:44;7.60;99.90
34558;DHT22;24708;48.888;8.736;2022-12-20T06:50:11;7.40;99.90
34558;DHT22;24708;48.888;8.736;2022-12-20T06:52:38;7.80;99.90
34558;DHT22;24708;48.888;8.736;2022-12-20T06:55:06;8.00;99.90
34558;DHT22;24708;48.888;8.736;2022-12-20T06:57:33;8.20;99.90
34558;DHT22;24708;48.888;8.736;2022-12-20T07:00:00;8.00;99.90
34558;DHT22;24708;48.888;8.736;2022-12-20T07:02:27;7.80;99.90
34558;DHT22;24708;48.888;8.736;2022-12-20T07:04:55;7.70;99.90
34558;DHT22;24708;48.888;8.736;2022-12-20T07:07:22;7.80;99.90
34558;DHT22;24708;48.888;8.736;2022-12-20T07:09:49;8.00;99.90
34558;DHT22;24708;48.888;8.736;2022-12-20T07:12:17;8.30;99.90
34558;DHT22;24708;48.888;8.736;2022-12-20T07:14:44;8.60;99.90
34558;DHT22;24708;48.888;8.736;2022-12-20T07:17:11;8.70;99.90
34558;DHT22;24708;48.888;8.736;2022-12-20T07:19:39;8.80;99.90
34558;DHT22;24708;48.888;8.736;2022-12-20T07:22:13;8.80;99.90
34558;DHT22;24708;48.888;8.736;2022-12-20T07:24:40;8.80;99.90
34558;DHT22;24708;48.888;8.736;2022-12-20T07:27:09;8.90;99.90
34558;DHT22;24708;48.888;8.736;2022-12-20T07:29:37;8.90;99.90
34558;DHT22;24708;48.888;8.736;2022-12-20T07:32:08;9.00;99.90
34558;DHT22;24708;48.888;8.736;2022-12-20T07:34:36;9.10;99.90
34558;DHT22;24708;48.888;8.736;2022-12-20T07:37:03;9.20;99.90
34558;DHT22;24708;48.888;8.736;2022-12-20T07:39:30;9.10;99.90
34558;DHT22;24708;48.888;8.736;2022-12-20T07:41:57;9.10;99.90
34558;DHT22;24708;48.888;8.736;2022-12-20T07:44:25;9.00;99.90
34558;DHT22;24708;48.888;8.736;2022-12-20T07:46:52;9.10;99.90
34558;DHT22;24708;48.888;8.736;2022-12-20T07:49:19;9.00;99.90
34558;DHT22;24708;48.888;8.736;2022-12-20T07:51:50;9.00;99.90
34558;DHT22;24708;48.888;8.736;2022-12-20T07:54:24;8.70;99.90
34558;DHT22;24708;48.888;8.736;2022-12-20T07:56:56;8.90;99.90
34558;DHT22;24708;48.888;8.736;2022-12-20T07:59:29;9.30;99.90
34558;DHT22;24708;48.888;8.736;2022-12-20T08:02:00;9.20;99.90
34558;DHT22;24708;48.888;8.736;2022-12-20T08:04:32;9.30;99.90
34558;DHT22;24708;48.888;8.736;2022-12-20T08:07:00;8.90;99.90
34558;DHT22;24708;48.888;8.736;2022-12-20T08:09:30;9.30;99.90
34558;DHT22;24708;48.888;8.736;2022-12-20T08:12:01;9.30;99.90
34558;DHT22;24708;48.888;8.736;2022-12-20T08:14:28;9.30;99.90
34558;DHT22;24708;48.888;8.736;2022-12-20T08:16:56;9.20;99.90
34558;DHT22;24708;48.888;8.736;2022-12-20T08:19:23;9.20;99.90
34558;DHT22;24708;48.888;8.736;2022-12-20T08:21:58;9.20;99.90
34558;DHT22;24708;48.888;8.736;2022-12-20T08:24:25;9.00;99.90
34558;DHT22;24708;48.888;8.736;2022-12-20T08:26:52;9.10;99.90
34558;DHT22;24708;48.888;8.736;2022-12-20T08:29:20;9.10;99.90
34558;DHT22;24708;48.888;8.736;2022-12-20T08:31:47;9.10;99.90
34558;DHT22;24708;48.888;8.736;2022-12-20T08:34:17;9.10;99.90
34558;DHT22;24708;48.888;8.736;2022-12-20T08:36:44;9.20;99.90
34558;DHT22;24708;48.888;8.736;2022-12-20T08:39:11;8.40;99.90
34558;DHT22;24708;48.888;8.736;2022-12-20T08:41:39;9.30;99.90
34558;DHT22;24708;48.888;8.736;2022-12-20T08:44:06;9.00;99.90
34558;DHT22;24708;48.888;8.736;2022-12-20T08:46:34;9.30;99.90
34558;DHT22;24708;48.888;8.736;2022-12-20T08:49:04;9.40;99.90
34558;DHT22;24708;48.888;8.736;2022-12-20T08:51:31;8.70;99.90
34558;DHT22;24708;48.888;8.736;2022-12-20T08:53:59;9.40;99.90
34558;DHT22;24708;48.888;8.736;2022-12-20T08:56:26;9.30;99.90
34558;DHT22;24708;48.888;8.736;2022-12-20T08:58:54;9.10;99.90
34558;DHT22;24708;48.888;8.736;2022-12-20T09:01:21;9.10;99.90
34558;DHT22;24708;48.888;8.736;2022-12-20T09:03:48;9.00;99.90
34558;DHT22;24708;48.888;8.736;2022-12-20T09:06:18;8.70;99.90
34558;DHT22;24708;48.888;8.736;2022-12-20T09:08:47;8.40;99.90
34558;DHT22;24708;48.888;8.736;2022-12-20T09:11:18;8.30;99.90
34558;DHT22;24708;48.888;8.736;2022-12-20T09:13:47;8.00;99.90
34558;DHT22;24708;48.888;8.736;2022-12-20T09:16:18;7.80;99.90
34558;DHT22;24708;48.888;8.736;2022-12-20T09:18:48;6.90;99.90
34558;DHT22;24708;48.888;8.736;2022-12-20T09:21:17;7.80;99.90
34558;DHT22;24708;48.888;8.736;2022-12-20T09:23:45;8.00;99.90
34558;DHT22;24708;48.888;8.736;2022-12-20T09:26:15;8.40;99.90
34558;DHT22;24708;48.888;8.736;2022-12-20T09:28:43;8.30;99.90
34558;DHT22;24708;48.888;8.736;2022-12-20T09:31:13;9.00;99.90
34558;DHT22;24708;48.888;8.736;2022-12-20T09:33:41;8.80;99.90
34558;DHT22;24708;48.888;8.736;2022-12-20T09:36:15;8.40;99.90
34558;DHT22;24708;48.888;8.736;2022-12-20T09:38:44;8.00;99.90
34558;DHT22;24708;48.888;8.736;2022-12-20T09:41:33;7.80;99.90
34558;DHT22;24708;48.888;8.736;2022-12-20T09:44:37;7.80;99.90
34558;DHT22;24708;48.888;8.736;2022-12-20T09:46:54;7.80;99.90
34558;DHT22;24708;48.888;8.736;2022-12-20T09:49:27;7.90;99.90
34558;DHT22;24708;48.888;8.736;2022-12-20T09:51:59;7.90;99.90
34558;DHT22;24708;48.888;8.736;2022-12-20T09:54:59;7.90;99.90
34558;DHT22;24708;48.888;8.736;2022-12-20T10:00:35;8.80;99.90
34558;DHT22;24708;48.888;8.736;2022-12-20T10:03:11;9.00;99.90
34558;DHT22;24708;48.888;8.736;2022-12-20T10:05:57;9.40;99.90
34558;DHT22;24708;48.888;8.736;2022-12-20T10:08:49;9.60;99.90
34558;DHT22;24708;48.888;8.736;2022-12-20T10:12:00;9.80;99.90
34558;DHT22;24708;48.888;8.736;2022-12-20T10:17:07;10.10;99.90
34558;DHT22;24708;48.888;8.736;2022-12-20T10:20:16;10.50;99.90
34558;DHT22;24708;48.888;8.736;2022-12-20T10:22:53;10.60;99.90
34558;DHT22;24708;48.888;8.736;2022-12-20T10:25:28;10.60;99.90
34558;DHT22;24708;48.888;8.736;2022-12-20T10:27:57;10.50;99.90
34558;DHT22;24708;48.888;8.736;2022-12-20T10:30:28;10.50;99.90
34558;DHT22;24708;48.888;8.736;2022-12-20T10:32:56;10.60;99.90
34558;DHT22;24708;48.888;8.736;2022-12-20T10:35:28;10.70;99.90
34558;DHT22;24708;48.888;8.736;2022-12-20T10:38:00;10.50;99.90
34558;DHT22;24708;48.888;8.736;2022-12-20T10:40:38;10.60;99.90
34558;DHT22;24708;48.888;8.736;2022-12-20T10:43:27;10.60;99.90
34558;DHT22;24708;48.888;8.736;2022-12-20T10:46:06;10.50;99.90
34558;DHT22;24708;48.888;8.736;2022-12-20T10:48:36;10.70;99.90
34558;DHT22;24708;48.888;8.736;2022-12-20T10:53:51;10.50;99.90
34558;DHT22;24708;48.888;8.736;2022-12-20T10:56:25;10.40;99.90
34558;DHT22;24708;48.888;8.736;2022-12-20T10:58:59;10.40;99.90
34558;DHT22;24708;48.888;8.736;2022-12-20T11:01:31;10.30;99.90
34558;DHT22;24708;48.888;8.736;2022-12-20T11:04:06;10.40;99.90
34558;DHT22;24708;48.888;8.736;2022-12-20T11:06:47;10.30;99.90
34558;DHT22;24708;48.888;8.736;2022-12-20T11:09:33;10.30;99.90
34558;DHT22;24708;48.888;8.736;2022-12-20T11:12:16;10.30;99.90
34558;DHT22;24708;48.888;8.736;2022-12-20T11:14:45;10.40;99.90
34558;DHT22;24708;48.888;8.736;2022-12-20T11:17:20;10.50;99.90
34558;DHT22;24708;48.888;8.736;2022-12-20T11:20:27;10.20;99.90
34558;DHT22;24708;48.888;8.736;2022-12-20T11:23:11;9.50;99.90
34558;DHT22;24708;48.888;8.736;2022-12-20T11:29:02;8.90;99.90
34558;DHT22;24708;48.888;8.736;2022-12-20T11:31:53;8.90;99.90
34558;DHT22;24708;48.888;8.736;2022-12-20T11:37:22;9.40;99.90
34558;DHT22;24708;48.888;8.736;2022-12-20T11:40:02;9.70;99.90
34558;DHT22;24708;48.888;8.736;2022-12-20T11:49:03;10.10;99.90
34558;DHT22;24708;48.888;8.736;2022-12-20T11:51:22;10.10;99.90
34558;DHT22;24708;48.888;8.736;2022-12-20T11:53:59;9.90;99.90
34558;DHT22;24708;48.888;8.736;2022-12-20T11:56:43;9.90;99.90
34558;DHT22;24708;48.888;8.736;2022-12-20T11:59:34;10.00;99.90
34558;DHT22;24708;48.888;8.736;2022-12-20T12:02:12;9.90;99.90
34558;DHT22;24708;48.888;8.736;2022-12-20T12:04:49;9.90;99.90
34558;DHT22;24708;48.888;8.736;2022-12-20T12:07:20;9.90;99.90
34558;DHT22;24708;48.888;8.736;2022-12-20T12:09:58;10.00;99.90
34558;DHT22;24708;48.888;8.736;2022-12-20T12:12:32;10.20;99.90
34558;DHT22;24708;48.888;8.736;2022-12-20T12:15:29;10.20;99.90
34558;DHT22;24708;48.888;8.736;2022-12-20T12:18:29;10.20;99.90
34558;DHT22;24708;48.888;8.736;2022-12-20T12:26:21;10.20;99.90
34558;DHT22;24708;48.888;8.736;2022-12-20T12:31:45;10.00;99.90
34558;DHT22;24708;48.888;8.736;2022-12-20T12:34:47;9.90;99.90
34558;DHT22;24708;48.888;8.736;2022-12-20T12:45:27;9.90;99.90
34558;DHT22;24708;48.888;8.736;2022-12-20T12:47:59;10.00;99.90
34558;DHT22;24708;48.888;8.736;2022-12-20T12:50:32;10.10;99.90
34558;DHT22;24708;48.888;8.736;2022-12-20T12:53:11;10.50;99.90
34558;DHT22;24708;48.888;8.736;2022-12-20T12:55:48;10.70;99.90
34558;DHT22;24708;48.888;8.736;2022-12-20T13:01:05;11.00;99.90
34558;DHT22;24708;48.888;8.736;2022-12-20T13:03:45;11.10;99.90
34558;DHT22;24708;48.888;8.736;2022-12-20T13:11:39;11.00;99.90
34558;DHT22;24708;48.888;8.736;2022-12-20T13:19:49;10.80;99.90
34558;DHT22;24708;48.888;8.736;2022-12-20T13:22:21;10.70;99.90
34558;DHT22;24708;48.888;8.736;2022-12-20T13:24:53;10.60;99.90
34558;DHT22;24708;48.888;8.736;2022-12-20T13:27:40;10.50;99.90
34558;DHT22;24708;48.888;8.736;2022-12-20T13:35:27;10.50;99.90
34558;DHT22;24708;48.888;8.736;2022-12-20T13:37:59;10.40;99.90
34558;DHT22;24708;48.888;8.736;2022-12-20T13:40:45;10.40;99.90
34558;DHT22;24708;48.888;8.736;2022-12-20T13:43:26;10.50;99.90
34558;DHT22;24708;48.888;8.736;2022-12-20T13:46:12;10.50;99.90
34558;DHT22;24708;48.888;8.736;2022-12-20T13:48:49;10.60;99.90
34558;DHT22;24708;48.888;8.736;2022-12-20T13:51:20;10.60;99.90
34558;DHT22;24708;48.888;8.736;2022-12-20T13:53:52;9.70;99.90
34558;DHT22;24708;48.888;8.736;2022-12-20T13:56:33;10.40;99.90
34558;DHT22;24708;48.888;8.736;2022-12-20T13:59:06;10.60;99.90
34558;DHT22;24708;48.888;8.736;2022-12-20T14:01:33;10.60;99.90
34558;DHT22;24708;48.888;8.736;2022-12-20T14:04:05;10.50;99.90
34558;DHT22;24708;48.888;8.736;2022-12-20T14:06:33;10.80;99.90
34558;DHT22;24708;48.888;8.736;2022-12-20T14:09:01;10.80;99.90
34558;DHT22;24708;48.888;8.736;2022-12-20T14:11:29;10.90;99.90
34558;DHT22;24708;48.888;8.736;2022-12-20T14:14:02;10.90;99.90
34558;DHT22;24708;48.888;8.736;2022-12-20T14:16:31;10.90;99.90
34558;DHT22;24708;48.888;8.736;2022-12-20T14:19:00;11.00;99.90
34558;DHT22;24708;48.888;8.736;2022-12-20T14:21:30;11.00;99.90
34558;DHT22;24708;48.888;8.736;2022-12-20T14:23:58;11.00;99.90
34558;DHT22;24708;48.888;8.736;2022-12-20T14:26:29;11.00;99.90
34558;DHT22;24708;48.888;8.736;2022-12-20T14:28:59;11.00;99.90
34558;DHT22;24708;48.888;8.736;2022-12-20T14:31:47;11.00;99.90
34558;DHT22;24708;48.888;8.736;2022-12-20T14:34:20;11.00;99.90
34558;DHT22;24708;48.888;8.736;2022-12-20T14:42:40;11.20;99.90
34558;DHT22;24708;48.888;8.736;2022-12-20T14:48:04;10.90;99.90
34558;DHT22;24708;48.888;8.736;2022-12-20T14:50:36;10.60;99.90
34558;DHT22;24708;48.888;8.736;2022-12-20T14:53:19;10.70;99.90
34558;DHT22;24708;48.888;8.736;2022-12-20T14:55:48;10.70;99.90
34558;DHT22;24708;48.888;8.736;2022-12-20T14:58:32;10.60;99.90
34558;DHT22;24708;48.888;8.736;2022-12-20T15:01:12;10.60;99.90
34558;DHT22;24708;48.888;8.736;2022-12-20T15:03:52;10.60;99.90
34558;DHT22;24708;48.888;8.736;2022-12-20T15:06:43;10.60;99.90
34558;DHT22;24708;48.888;8.736;2022-12-20T15:09:11;10.50;99.90
34558;DHT22;24708;48.888;8.736;2022-12-20T15:11:40;10.50;99.90
34558;DHT22;24708;48.888;8.736;2022-12-20T15:14:36;10.50;99.90
34558;DHT22;24708;48.888;8.736;2022-12-20T15:17:10;10.50;99.90
34558;DHT22;24708;48.888;8.736;2022-12-20T15:19:37;10.50;99.90
34558;DHT22;24708;48.888;8.736;2022-12-20T15:22:14;10.40;99.90
34558;DHT22;24708;48.888;8.736;2022-12-20T15:24:42;10.40;99.90
34558;DHT22;24708;48.888;8.736;2022-12-20T15:27:14;10.40;99.90
34558;DHT22;24708;48.888;8.736;2022-12-20T15:29:41;10.30;99.90
34558;DHT22;24708;48.888;8.736;2022-12-20T15:32:23;10.10;99.90
34558;DHT22;24708;48.888;8.736;2022-12-20T15:34:51;9.90;99.90
34558;DHT22;24708;48.888;8.736;2022-12-20T15:37:18;9.90;99.90
34558;DHT22;24708;48.888;8.736;2022-12-20T15:39:45;10.10;99.90
34558;DHT22;24708;48.888;8.736;2022-12-20T15:42:16;10.30;99.90
34558;DHT22;24708;48.888;8.736;2022-12-20T15:44:44;10.40;99.90
34558;DHT22;24708;48.888;8.736;2022-12-20T15:47:14;10.50;99.90
34558;DHT22;24708;48.888;8.736;2022-12-20T15:49:42;10.50;99.90
34558;DHT22;24708;48.888;8.736;2022-12-20T15:52:21;10.50;99.90
34558;DHT22;24708;48.888;8.736;2022-12-20T15:54:49;10.50;99.90
34558;DHT22;24708;48.888;8.736;2022-12-20T15:57:16;10.60;99.90
34558;DHT22;24708;48.888;8.736;2022-12-20T15:59:44;10.50;99.90
34558;DHT22;24708;48.888;8.736;2022-12-20T16:02:30;10.50;99.90
34558;DHT22;24708;48.888;8.736;2022-12-20T16:04:58;10.50;99.90
34558;DHT22;24708;48.888;8.736;2022-12-20T16:07:26;10.40;99.90
34558;DHT22;24708;48.888;8.736;2022-12-20T16:09:54;10.40;99.90
34558;DHT22;24708;48.888;8.736;2022-12-20T16:12:25;10.50;99.90
34558;DHT22;24708;48.888;8.736;2022-12-20T16:14:54;10.40;99.90
34558;DHT22;24708;48.888;8.736;2022-12-20T16:17:21;10.40;99.90
34558;DHT22;24708;48.888;8.736;2022-12-20T16:19:48;10.40;99.90
34558;DHT22;24708;48.888;8.736;2022-12-20T16:22:18;10.40;99.90
34558;DHT22;24708;48.888;8.736;2022-12-20T16:24:47;10.40;99.90
34558;DHT22;24708;48.888;8.736;2022-12-20T16:27:14;10.30;99.90
34558;DHT22;24708;48.888;8.736;2022-12-20T16:29:41;10.30;99.90
34558;DHT22;24708;48.888;8.736;2022-12-20T16:32:14;10.30;99.90
34558;DHT22;24708;48.888;8.736;2022-12-20T16:34:42;10.30;99.90
34558;DHT22;24708;48.888;8.736;2022-12-20T16:37:09;10.20;99.90
34558;DHT22;24708;48.888;8.736;2022-12-20T16:39:38;10.10;99.90
34558;DHT22;24708;48.888;8.736;2022-12-20T16:42:12;10.20;99.90
34558;DHT22;24708;48.888;8.736;2022-12-20T16:44:41;10.20;99.90
34558;DHT22;24708;48.888;8.736;2022-12-20T16:47:11;10.30;99.90
34558;DHT22;24708;48.888;8.736;2022-12-20T16:49:39;10.30;99.90
34558;DHT22;24708;48.888;8.736;2022-12-20T16:52:17;10.30;99.90
34558;DHT22;24708;48.888;8.736;2022-12-20T16:54:44;10.30;99.90
34558;DHT22;24708;48.888;8.736;2022-12-20T16:57:12;10.30;99.90
34558;DHT22;24708;48.888;8.736;2022-12-20T16:59:39;10.30;99.90
